Time;durP1;ratioP1;P1;durP2;ratioP2;P2;SDS_P1;SDS_P2;PMS_P1;PMS_P2;Temp;Humidity;BMP_temperature;BMP_pressure;BME280_temperature;BME280_humidity;BME280_pressure;Samples;Min_cycle;Max_cycle;Signal;HPM_P1;HPM_P2
2023/12/27 00:00:10;;;;;;;2.00;1.30;;;6.30;99.90;;;;;;2029275;29;20185;-65
2023/12/27 00:01:11;;;;;;;3.13;2.00;;;6.40;99.90;;;;;;2037030;29;20253;-64
2023/12/27 00:02:12;;;;;;;3.23;2.40;;;6.30;99.90;;;;;;2036974;29;20650;-66
2023/12/27 00:03:12;;;;;;;5.87;3.10;;;6.20;99.90;;;;;;2037473;28;20590;-66
2023/12/27 00:04:13;;;;;;;5.17;2.47;;;6.20;99.90;;;;;;2029158;29;20181;-65
2023/12/27 00:05:15;;;;;;;6.28;2.67;;;6.00;99.90;;;;;;2030157;29;20260;-64
2023/12/27 00:06:16;;;;;;;5.93;2.30;;;6.00;99.90;;;;;;2036439;29;20275;-64
2023/12/27 00:07:17;;;;;;;5.30;2.20;;;5.90;99.90;;;;;;2038322;28;20243;-66
2023/12/27 00:08:17;;;;;;;5.30;2.30;;;5.80;99.90;;;;;;2037421;28;20221;-65
2023/12/27 00:09:18;;;;;;;3.93;2.03;;;5.80;99.90;;;;;;2037138;29;20191;-65
2023/12/27 00:10:19;;;;;;;3.77;2.10;;;5.80;99.90;;;;;;2022626;29;20195;-66
2023/12/27 00:11:20;;;;;;;3.22;2.30;;;5.90;99.90;;;;;;2036914;29;20192;-66
2023/12/27 00:12:20;;;;;;;2.03;1.73;;;5.80;99.90;;;;;;2037046;29;20221;-66
2023/12/27 00:13:21;;;;;;;3.53;1.53;;;5.90;99.90;;;;;;2037077;29;20676;-66
2023/12/27 00:14:22;;;;;;;2.75;2.17;;;5.90;99.90;;;;;;2037446;28;20287;-66
2023/12/27 00:15:23;;;;;;;3.77;1.80;;;6.00;99.90;;;;;;2037161;29;20318;-66
2023/12/27 00:16:24;;;;;;;3.47;2.03;;;5.90;99.90;;;;;;2029528;29;20232;-65
2023/12/27 00:17:25;;;;;;;3.37;2.07;;;5.90;99.90;;;;;;2028942;29;20311;-66
2023/12/27 00:18:25;;;;;;;4.63;2.00;;;5.90;99.90;;;;;;2036790;29;20558;-66
2023/12/27 00:19:26;;;;;;;4.03;2.43;;;5.90;99.90;;;;;;2036714;29;21913;-66
2023/12/27 00:20:27;;;;;;;3.00;2.10;;;6.00;99.90;;;;;;2037599;28;20722;-66
2023/12/27 00:21:27;;;;;;;3.10;1.80;;;6.00;99.90;;;;;;2037242;28;20222;-65
2023/12/27 00:22:28;;;;;;;5.50;1.77;;;6.00;99.90;;;;;;2037091;29;20237;-65
2023/12/27 00:23:29;;;;;;;3.97;1.97;;;6.10;99.90;;;;;;2037593;29;20251;-66
2023/12/27 00:24:30;;;;;;;5.07;1.80;;;6.10;99.90;;;;;;2038313;28;20232;-65
2023/12/27 00:25:30;;;;;;;4.27;2.13;;;6.10;99.90;;;;;;2036847;29;20270;-67
2023/12/27 00:26:31;;;;;;;3.97;2.13;;;6.20;99.90;;;;;;2036637;29;20701;-66
2023/12/27 00:27:32;;;;;;;3.73;1.97;;;6.10;99.90;;;;;;2036762;29;20675;-64
2023/12/27 00:28:32;;;;;;;3.30;1.63;;;6.10;99.90;;;;;;2038102;28;20324;-66
2023/12/27 00:29:33;;;;;;;3.53;1.97;;;6.20;99.90;;;;;;2037326;28;20786;-66
2023/12/27 00:30:34;;;;;;;4.63;2.13;;;6.20;99.90;;;;;;2037613;28;20612;-65
2023/12/27 00:31:35;;;;;;;3.35;1.92;;;6.20;99.90;;;;;;2037587;29;20239;-65
2023/12/27 00:32:35;;;;;;;2.43;1.60;;;6.10;99.90;;;;;;2037139;29;20283;-66
2023/12/27 00:33:37;;;;;;;2.40;1.80;;;6.20;99.90;;;;;;2037863;28;20236;-66
2023/12/27 00:34:38;;;;;;;3.03;1.98;;;6.20;99.90;;;;;;2036949;28;20238;-65
2023/12/27 00:35:39;;;;;;;4.47;1.77;;;6.10;99.90;;;;;;2036495;29;20242;-66
2023/12/27 00:36:39;;;;;;;2.23;1.80;;;6.00;99.90;;;;;;2037195;29;20267;-66
2023/12/27 00:37:40;;;;;;;3.73;1.87;;;6.00;99.90;;;;;;2037359;28;20893;-66
2023/12/27 00:38:41;;;;;;;2.77;1.50;;;6.10;99.90;;;;;;2038231;28;20773;-65
2023/12/27 00:39:42;;;;;;;2.03;1.53;;;6.00;99.90;;;;;;2037849;28;20236;-67
2023/12/27 00:40:43;;;;;;;2.40;1.70;;;6.00;99.90;;;;;;2037826;28;20228;-66
2023/12/27 00:41:44;;;;;;;2.25;1.80;;;5.90;99.90;;;;;;2036941;29;20486;-67
2023/12/27 00:42:46;;;;;;;2.60;1.60;;;6.00;99.90;;;;;;2036619;29;20228;-67
2023/12/27 00:43:47;;;;;;;2.97;1.92;;;6.00;99.90;;;;;;2036924;29;20243;-67
2023/12/27 00:44:49;;;;;;;3.03;1.60;;;6.00;99.90;;;;;;2037814;28;20239;-67
2023/12/27 00:45:50;;;;;;;3.03;1.50;;;6.00;99.90;;;;;;2036646;28;20233;-65
2023/12/27 00:46:51;;;;;;;2.47;1.63;;;6.00;99.90;;;;;;2037385;28;20229;-66
2023/12/27 00:47:52;;;;;;;3.63;1.85;;;6.00;99.90;;;;;;2037305;28;20683;-68
2023/12/27 00:48:53;;;;;;;2.42;1.50;;;6.00;99.90;;;;;;2034197;29;20233;-68
2023/12/27 00:49:53;;;;;;;4.43;1.70;;;6.00;99.90;;;;;;2029644;29;20290;-68
2023/12/27 00:50:54;;;;;;;1.67;1.20;;;6.00;99.90;;;;;;2036709;29;20228;-66
2023/12/27 00:51:55;;;;;;;3.73;1.50;;;6.00;99.90;;;;;;2028728;29;20225;-66
2023/12/27 00:52:55;;;;;;;2.13;1.30;;;6.00;99.90;;;;;;2021524;29;20221;-67
2023/12/27 00:53:56;;;;;;;2.23;1.37;;;6.10;99.90;;;;;;2036935;29;20282;-65
2023/12/27 00:54:57;;;;;;;3.30;1.40;;;6.00;99.90;;;;;;2038540;28;20712;-65
2023/12/27 00:55:57;;;;;;;1.93;1.10;;;6.10;99.90;;;;;;2037818;28;20232;-66
2023/12/27 00:56:58;;;;;;;1.93;1.40;;;6.00;99.90;;;;;;2037561;29;20236;-65
2023/12/27 00:57:59;;;;;;;3.30;1.70;;;6.00;99.90;;;;;;2037720;28;20235;-65
2023/12/27 00:59:00;;;;;;;2.67;1.43;;;6.00;99.90;;;;;;2037367;28;20252;-65
2023/12/27 01:00:01;;;;;;;2.33;1.50;;;6.00;99.90;;;;;;2037656;29;20283;-65
2023/12/27 01:01:01;;;;;;;2.87;1.50;;;6.00;99.90;;;;;;2027928;29;20229;-67
2023/12/27 01:02:02;;;;;;;1.83;1.50;;;6.00;99.90;;;;;;2029801;29;20432;-65
2023/12/27 01:03:03;;;;;;;2.10;1.37;;;6.10;99.90;;;;;;2036982;29;20195;-66
2023/12/27 01:04:04;;;;;;;3.90;1.53;;;6.10;99.90;;;;;;2035959;29;20433;-65
2023/12/27 01:05:05;;;;;;;2.40;1.37;;;6.00;99.90;;;;;;2037244;28;20247;-65
2023/12/27 01:06:08;;;;;;;4.00;1.50;;;6.00;99.90;;;;;;2036780;28;20321;-66
2023/12/27 01:07:08;;;;;;;1.48;1.30;;;5.90;99.90;;;;;;2036563;28;20431;-66
2023/12/27 01:08:09;;;;;;;2.03;1.20;;;5.80;99.90;;;;;;2036691;29;21568;-67
2023/12/27 01:09:10;;;;;;;2.03;1.30;;;5.90;99.90;;;;;;2036811;29;20241;-67
2023/12/27 01:10:11;;;;;;;2.97;1.40;;;5.90;99.90;;;;;;2028645;29;20192;-67
2023/12/27 01:11:11;;;;;;;3.80;1.40;;;5.90;99.90;;;;;;2028994;29;20734;-67
2023/12/27 01:12:12;;;;;;;1.60;1.40;;;5.90;99.90;;;;;;2030276;29;20571;-67
2023/12/27 01:13:13;;;;;;;3.03;1.10;;;5.80;99.90;;;;;;2033364;29;20641;-67
2023/12/27 01:14:14;;;;;;;1.77;1.27;;;5.80;99.90;;;;;;2037029;28;20188;-67
2023/12/27 01:15:14;;;;;;;4.30;2.00;;;5.80;99.90;;;;;;2037140;28;20279;-67
2023/12/27 01:16:15;;;;;;;2.57;1.43;;;5.80;99.90;;;;;;2036672;29;20188;-67
2023/12/27 01:17:16;;;;;;;6.20;1.53;;;5.80;99.90;;;;;;2036380;29;20196;-67
2023/12/27 01:18:17;;;;;;;3.37;1.10;;;5.70;99.90;;;;;;2036017;29;20285;-66
2023/12/27 01:19:17;;;;;;;1.43;1.07;;;5.70;99.90;;;;;;2036215;29;20193;-67
2023/12/27 01:20:19;;;;;;;2.13;1.60;;;5.70;99.90;;;;;;2037590;28;20192;-68
2023/12/27 01:21:19;;;;;;;5.53;2.08;;;5.70;99.90;;;;;;2028358;29;20204;-67
2023/12/27 01:22:20;;;;;;;1.47;1.27;;;5.60;99.90;;;;;;2028647;29;20212;-67
2023/12/27 01:23:21;;;;;;;1.67;1.20;;;5.60;99.90;;;;;;2037208;28;20284;-67
2023/12/27 01:24:21;;;;;;;2.27;1.40;;;5.50;99.90;;;;;;2037194;28;20259;-67
2023/12/27 01:25:22;;;;;;;2.27;1.60;;;5.50;99.90;;;;;;2036372;29;20363;-68
2023/12/27 01:26:22;;;;;;;3.83;1.20;;;5.40;99.90;;;;;;2028639;29;20730;-67
2023/12/27 01:27:23;;;;;;;2.30;1.30;;;5.30;99.90;;;;;;2028490;29;20274;-66
2023/12/27 01:28:25;;;;;;;3.10;1.13;;;5.30;99.90;;;;;;2029746;29;20241;-67
2023/12/27 01:29:25;;;;;;;1.30;1.13;;;5.20;99.90;;;;;;2037503;29;20240;-67
2023/12/27 01:30:26;;;;;;;2.37;1.50;;;5.10;99.90;;;;;;2036811;28;20311;-67
2023/12/27 01:31:27;;;;;;;2.53;1.10;;;5.10;99.90;;;;;;2037200;28;20268;-67
2023/12/27 01:32:27;;;;;;;1.53;1.13;;;5.10;99.90;;;;;;2037771;28;20236;-67
2023/12/27 01:33:28;;;;;;;1.90;1.20;;;5.00;99.90;;;;;;2038171;29;20235;-67
2023/12/27 01:34:29;;;;;;;2.10;1.20;;;5.00;99.90;;;;;;2037803;29;20231;-66
2023/12/27 01:35:29;;;;;;;3.13;1.10;;;5.00;99.90;;;;;;2036769;29;20624;-67
2023/12/27 01:36:30;;;;;;;1.70;1.30;;;4.80;99.90;;;;;;2036538;29;20235;-67
2023/12/27 01:37:32;;;;;;;2.80;1.60;;;4.80;99.90;;;;;;2038066;29;20695;-67
2023/12/27 01:38:33;;;;;;;2.15;1.20;;;4.80;99.90;;;;;;2035922;29;20246;-67
2023/12/27 01:39:33;;;;;;;2.00;0.93;;;4.80;99.90;;;;;;2036995;29;20232;-66
2023/12/27 01:40:34;;;;;;;1.60;1.17;;;4.80;99.90;;;;;;2036344;29;20250;-67
2023/12/27 01:41:35;;;;;;;4.40;1.30;;;4.80;99.90;;;;;;2037904;28;20275;-66
2023/12/27 01:42:37;;;;;;;2.70;1.30;;;4.70;99.90;;;;;;2036589;28;20236;-67
2023/12/27 01:43:38;;;;;;;2.35;1.10;;;4.70;99.90;;;;;;2037925;28;20243;-67
2023/12/27 01:44:38;;;;;;;1.33;1.00;;;4.60;99.90;;;;;;2038580;29;20240;-67
2023/12/27 01:45:39;;;;;;;2.87;1.23;;;4.60;99.90;;;;;;2039063;29;20236;-67
2023/12/27 01:46:40;;;;;;;1.40;1.10;;;4.60;99.90;;;;;;2038787;29;20228;-66
2023/12/27 01:47:42;;;;;;;2.17;1.03;;;4.60;99.90;;;;;;2037199;29;20236;-67
2023/12/27 01:48:43;;;;;;;1.70;1.35;;;4.50;99.90;;;;;;2037533;29;20338;-66
2023/12/27 01:49:44;;;;;;;2.88;1.30;;;4.50;99.90;;;;;;2037496;29;20329;-66
2023/12/27 01:50:45;;;;;;;2.23;1.20;;;4.40;99.90;;;;;;2037303;29;20232;-66
2023/12/27 01:51:45;;;;;;;2.27;1.37;;;4.40;99.90;;;;;;2038836;28;20236;-65
2023/12/27 01:52:46;;;;;;;3.33;1.60;;;4.40;99.90;;;;;;2037129;29;20232;-66
2023/12/27 01:53:48;;;;;;;4.43;1.57;;;4.40;99.90;;;;;;2037890;29;20279;-66
2023/12/27 01:54:48;;;;;;;4.03;1.98;;;4.40;99.90;;;;;;2037925;29;20232;-67
2023/12/27 01:55:51;;;;;;;3.60;1.43;;;4.40;99.90;;;;;;2038109;29;20644;-66
2023/12/27 01:56:52;;;;;;;3.78;1.42;;;4.40;99.90;;;;;;2029045;29;20263;-66
2023/12/27 01:57:52;;;;;;;2.83;1.70;;;4.30;99.90;;;;;;2037578;29;20738;-67
2023/12/27 01:58:53;;;;;;;3.20;1.50;;;4.30;99.90;;;;;;2038813;28;20254;-65
2023/12/27 01:59:54;;;;;;;3.83;1.43;;;4.30;99.90;;;;;;2031091;29;20740;-66
2023/12/27 02:00:56;;;;;;;2.95;1.73;;;4.30;99.90;;;;;;2030353;29;20283;-66
2023/12/27 02:01:57;;;;;;;3.15;1.40;;;4.20;99.90;;;;;;2037739;29;20290;-66
2023/12/27 02:02:58;;;;;;;2.00;1.45;;;4.30;99.90;;;;;;2029643;29;20248;-66
2023/12/27 02:03:59;;;;;;;2.70;1.13;;;4.30;99.90;;;;;;2038927;29;20724;-66
2023/12/27 02:04:59;;;;;;;1.70;1.10;;;4.30;99.90;;;;;;2037243;28;20328;-66
2023/12/27 02:06:01;;;;;;;2.53;1.40;;;4.30;99.90;;;;;;2036580;29;20275;-67
2023/12/27 02:07:02;;;;;;;3.88;1.42;;;4.20;99.90;;;;;;2027539;29;20235;-66
2023/12/27 02:08:05;;;;;;;1.80;1.20;;;4.30;99.90;;;;;;2027872;29;20185;-66
2023/12/27 02:09:06;;;;;;;2.30;1.48;;;4.20;99.90;;;;;;2034873;29;20193;-65
2023/12/27 02:10:07;;;;;;;1.40;1.15;;;4.20;99.90;;;;;;2036844;29;20184;-66
2023/12/27 02:11:08;;;;;;;2.55;1.35;;;4.20;99.90;;;;;;2036167;29;20192;-66
2023/12/27 02:12:08;;;;;;;2.70;1.37;;;4.10;99.90;;;;;;2037606;28;20196;-67
2023/12/27 02:13:09;;;;;;;1.93;1.40;;;4.20;99.90;;;;;;2036647;28;20607;-66
2023/12/27 02:14:10;;;;;;;2.50;1.33;;;4.10;99.90;;;;;;2029640;29;20632;-65
2023/12/27 02:15:11;;;;;;;2.13;1.30;;;4.20;99.90;;;;;;2029932;29;20217;-67
2023/12/27 02:16:12;;;;;;;3.07;1.30;;;4.10;99.90;;;;;;2034904;29;20216;-67
2023/12/27 02:17:12;;;;;;;3.25;1.02;;;4.00;99.90;;;;;;2037272;28;20239;-67
2023/12/27 02:18:14;;;;;;;2.20;1.50;;;3.90;99.90;;;;;;2035740;29;20263;-66
2023/12/27 02:19:23;;;;;;;2.05;1.30;;;3.90;99.90;;;;;;2030414;29;20547;-67
2023/12/27 02:20:24;;;;;;;2.25;1.92;;;3.90;99.90;;;;;;2030436;29;20233;-66
2023/12/27 02:21:25;;;;;;;1.65;1.30;;;3.90;99.90;;;;;;2035983;29;20239;-67
2023/12/27 02:22:28;;;;;;;2.72;1.80;;;3.80;99.90;;;;;;2035967;29;20239;-67
2023/12/27 02:23:32;;;;;;;1.60;1.35;;;3.90;99.90;;;;;;2035097;29;20236;-67
2023/12/27 02:24:35;;;;;;;4.00;1.50;;;3.80;99.90;;;;;;2035631;29;20223;-67
2023/12/27 02:25:36;;;;;;;4.03;1.60;;;3.80;99.90;;;;;;2035554;29;20236;-66
2023/12/27 02:26:37;;;;;;;3.03;1.60;;;3.70;99.90;;;;;;2037875;29;20472;-67
2023/12/27 02:27:37;;;;;;;5.87;1.43;;;3.60;99.90;;;;;;2043100;28;20338;-66
2023/12/27 02:28:38;;;;;;;2.17;1.40;;;3.60;99.90;;;;;;2043831;28;20246;-66
2023/12/27 02:29:39;;;;;;;5.83;1.50;;;3.50;99.90;;;;;;2042932;28;20298;-66
2023/12/27 02:30:39;;;;;;;2.13;1.17;;;3.50;99.90;;;;;;2036169;29;20245;-66
2023/12/27 02:31:40;;;;;;;2.77;1.43;;;3.40;99.90;;;;;;2033453;29;20647;-66
2023/12/27 02:32:41;;;;;;;2.80;1.67;;;3.30;99.90;;;;;;2035996;29;20239;-67
2023/12/27 02:33:46;;;;;;;2.80;1.60;;;3.40;99.90;;;;;;2036470;29;20497;-66
2023/12/27 02:34:47;;;;;;;1.73;1.25;;;3.40;99.90;;;;;;2036062;29;20707;-67
2023/12/27 02:35:48;;;;;;;1.57;1.40;;;3.30;99.90;;;;;;2036202;29;20235;-67
2023/12/27 02:36:48;;;;;;;3.97;1.80;;;3.30;99.90;;;;;;2036987;28;20243;-67
2023/12/27 02:37:49;;;;;;;2.67;1.50;;;3.30;99.90;;;;;;2035252;29;20897;-67
2023/12/27 02:38:50;;;;;;;2.60;1.40;;;3.30;99.90;;;;;;2035685;29;20243;-66
2023/12/27 02:39:50;;;;;;;3.13;1.30;;;3.30;99.90;;;;;;2036278;28;20235;-66
2023/12/27 02:40:51;;;;;;;2.53;1.57;;;3.10;99.90;;;;;;2036334;28;20234;-65
2023/12/27 02:41:52;;;;;;;5.17;1.50;;;3.10;99.90;;;;;;2033838;29;20324;-66
2023/12/27 02:42:53;;;;;;;2.80;1.50;;;3.10;99.90;;;;;;2035686;29;20277;-67
2023/12/27 02:43:53;;;;;;;3.80;1.70;;;3.10;99.90;;;;;;2036094;29;20232;-67
2023/12/27 02:44:54;;;;;;;1.73;1.40;;;3.20;99.90;;;;;;2037980;29;20245;-66
2023/12/27 02:45:54;;;;;;;2.67;1.60;;;3.20;99.90;;;;;;2038307;29;20232;-66
2023/12/27 02:46:55;;;;;;;2.00;1.30;;;3.10;99.90;;;;;;2036392;29;20225;-67
2023/12/27 02:47:56;;;;;;;2.30;1.53;;;3.20;99.90;;;;;;2027945;29;20300;-67
2023/12/27 02:48:57;;;;;;;5.00;1.77;;;3.20;99.90;;;;;;2035130;29;20247;-67
2023/12/27 02:49:57;;;;;;;2.83;1.43;;;3.10;99.90;;;;;;2036330;28;20239;-67
2023/12/27 02:50:58;;;;;;;4.40;1.83;;;3.10;99.90;;;;;;2035707;29;20236;-66
2023/12/27 02:51:59;;;;;;;4.47;1.73;;;3.10;99.90;;;;;;2035999;29;20244;-67
2023/12/27 02:52:59;;;;;;;2.47;1.23;;;3.10;99.90;;;;;;2036715;28;20307;-67
2023/12/27 02:54:00;;;;;;;3.00;1.80;;;3.00;99.90;;;;;;2036230;28;20259;-66
2023/12/27 02:55:01;;;;;;;2.73;1.23;;;3.00;99.90;;;;;;2034586;28;20313;-66
2023/12/27 02:56:01;;;;;;;1.30;1.10;;;3.00;99.90;;;;;;2035436;28;20688;-67
2023/12/27 02:57:02;;;;;;;1.57;1.30;;;3.00;99.90;;;;;;2036326;28;20227;-66
2023/12/27 02:58:03;;;;;;;4.22;1.35;;;3.10;99.90;;;;;;2035293;29;20354;-66
2023/12/27 02:59:04;;;;;;;2.53;1.40;;;3.00;99.90;;;;;;2027956;29;20238;-67
2023/12/27 03:00:06;;;;;;;2.17;1.50;;;3.10;99.90;;;;;;2035586;29;20427;-67
2023/12/27 03:01:07;;;;;;;3.70;1.77;;;3.00;99.90;;;;;;2042692;28;20212;-66
2023/12/27 03:02:08;;;;;;;4.30;1.73;;;2.90;99.90;;;;;;2030128;29;20196;-66
2023/12/27 03:03:09;;;;;;;3.27;1.30;;;2.90;99.90;;;;;;2029474;29;20260;-66
2023/12/27 03:04:09;;;;;;;3.73;1.50;;;2.90;99.90;;;;;;2034240;29;20191;-67
2023/12/27 03:05:11;;;;;;;2.67;1.77;;;2.90;99.90;;;;;;2038536;28;20187;-66
2023/12/27 03:06:11;;;;;;;3.92;1.75;;;2.80;99.90;;;;;;2035382;29;20282;-67
2023/12/27 03:07:12;;;;;;;2.27;1.40;;;2.70;99.90;;;;;;2035760;29;20266;-66
2023/12/27 03:08:13;;;;;;;3.00;1.50;;;2.70;99.90;;;;;;2036119;28;20253;-66
2023/12/27 03:09:13;;;;;;;2.27;1.57;;;2.80;99.90;;;;;;2036028;28;20270;-67
2023/12/27 03:10:14;;;;;;;1.40;1.30;;;2.70;99.90;;;;;;2035718;28;20191;-66
2023/12/27 03:11:15;;;;;;;2.90;1.50;;;2.70;99.90;;;;;;2034268;29;20280;-66
2023/12/27 03:12:16;;;;;;;2.67;1.60;;;2.70;99.90;;;;;;2034848;29;20224;-67
2023/12/27 03:13:16;;;;;;;3.13;1.57;;;2.70;99.90;;;;;;2036842;28;20223;-66
2023/12/27 03:14:17;;;;;;;2.70;1.70;;;2.70;99.90;;;;;;2035931;28;20195;-67
2023/12/27 03:15:19;;;;;;;2.23;1.50;;;2.70;99.90;;;;;;2037692;29;20863;-67
2023/12/27 03:16:19;;;;;;;2.17;1.55;;;2.50;99.90;;;;;;2038750;29;20437;-67
2023/12/27 03:17:20;;;;;;;3.13;1.33;;;2.60;99.90;;;;;;2035224;29;20195;-66
2023/12/27 03:18:21;;;;;;;1.80;1.40;;;2.60;99.90;;;;;;2042841;28;20436;-66
2023/12/27 03:19:22;;;;;;;2.57;1.60;;;2.60;99.90;;;;;;2023842;29;20244;-67
2023/12/27 03:20:23;;;;;;;1.90;1.38;;;2.70;99.90;;;;;;2025812;29;20335;-66
2023/12/27 03:21:23;;;;;;;2.50;1.30;;;2.70;99.90;;;;;;2037450;29;20248;-66
2023/12/27 03:22:24;;;;;;;4.70;1.40;;;2.60;99.90;;;;;;2029192;29;20681;-66
2023/12/27 03:23:25;;;;;;;1.83;1.50;;;2.60;99.90;;;;;;2034096;29;20305;-67
2023/12/27 03:24:26;;;;;;;3.60;1.30;;;2.50;99.90;;;;;;2033571;29;20242;-67
2023/12/27 03:25:26;;;;;;;2.83;1.40;;;2.60;99.90;;;;;;2034360;29;20656;-66
2023/12/27 03:26:27;;;;;;;4.60;1.73;;;2.50;99.90;;;;;;2035295;28;20299;-67
2023/12/27 03:27:28;;;;;;;2.53;1.40;;;2.60;99.90;;;;;;2025736;29;20255;-67
2023/12/27 03:28:28;;;;;;;1.57;1.27;;;2.60;99.90;;;;;;2027305;29;20701;-67
2023/12/27 03:29:29;;;;;;;2.10;1.30;;;2.60;99.90;;;;;;2038098;29;20243;-66
2023/12/27 03:30:30;;;;;;;2.40;1.50;;;2.60;99.90;;;;;;2030343;29;20364;-67
2023/12/27 03:31:30;;;;;;;1.50;1.13;;;2.60;99.90;;;;;;2037965;29;20239;-65
2023/12/27 03:32:31;;;;;;;2.70;1.60;;;2.50;99.90;;;;;;2038191;29;20783;-67
2023/12/27 03:33:32;;;;;;;2.97;1.43;;;2.60;99.90;;;;;;2037800;29;20233;-67
2023/12/27 03:34:33;;;;;;;2.45;1.40;;;2.60;99.90;;;;;;2036375;28;20243;-66
2023/12/27 03:35:34;;;;;;;3.80;1.50;;;2.60;99.90;;;;;;2035712;28;20238;-67
2023/12/27 03:36:34;;;;;;;2.10;1.70;;;2.60;99.90;;;;;;2035874;28;20228;-67
2023/12/27 03:37:35;;;;;;;2.30;1.60;;;2.70;99.90;;;;;;2034564;29;20231;-66
2023/12/27 03:38:36;;;;;;;3.60;1.93;;;2.60;99.90;;;;;;2037738;29;20247;-67
2023/12/27 03:39:36;;;;;;;5.47;2.63;;;2.50;99.90;;;;;;2035969;29;20719;-67
2023/12/27 03:40:38;;;;;;;3.87;2.10;;;2.50;99.90;;;;;;2034964;29;20239;-66
2023/12/27 03:41:39;;;;;;;2.17;1.50;;;2.60;99.90;;;;;;2035913;28;20230;-67
2023/12/27 03:42:40;;;;;;;4.53;2.05;;;2.60;99.90;;;;;;2037842;29;20258;-67
2023/12/27 03:43:40;;;;;;;3.67;2.00;;;2.60;99.90;;;;;;2029823;29;20248;-67
2023/12/27 03:44:42;;;;;;;2.63;1.50;;;2.50;99.90;;;;;;2035150;29;20246;-66
2023/12/27 03:45:45;;;;;;;2.25;1.42;;;2.50;99.90;;;;;;2035149;29;20246;-67
2023/12/27 03:46:45;;;;;;;2.60;1.50;;;2.50;99.90;;;;;;2036178;29;20232;-66
2023/12/27 03:47:46;;;;;;;4.30;1.60;;;2.50;99.90;;;;;;2034754;29;20325;-67
2023/12/27 03:48:47;;;;;;;3.27;2.00;;;2.50;99.90;;;;;;2027013;29;20330;-66
2023/12/27 03:49:47;;;;;;;2.67;1.60;;;2.50;99.90;;;;;;2037100;29;20276;-67
2023/12/27 03:50:48;;;;;;;3.67;1.70;;;2.50;99.90;;;;;;2037836;29;20775;-67
2023/12/27 03:51:49;;;;;;;3.63;1.90;;;2.50;99.90;;;;;;2030587;29;20239;-66
2023/12/27 03:52:49;;;;;;;4.67;2.03;;;2.50;99.90;;;;;;2035095;29;20326;-67
2023/12/27 03:53:50;;;;;;;4.67;1.77;;;2.50;99.90;;;;;;2035725;28;20275;-67
2023/12/27 03:54:51;;;;;;;2.23;1.73;;;2.50;99.90;;;;;;2037968;29;20291;-67
2023/12/27 03:55:51;;;;;;;4.20;1.97;;;2.40;99.90;;;;;;2038872;29;20243;-66
2023/12/27 03:56:52;;;;;;;2.43;1.90;;;2.50;99.90;;;;;;2034660;29;20660;-67
2023/12/27 03:57:53;;;;;;;2.60;1.83;;;2.50;99.90;;;;;;2030028;29;20619;-66
2023/12/27 03:58:54;;;;;;;3.00;2.10;;;2.40;99.90;;;;;;2034525;29;20240;-67
2023/12/27 03:59:54;;;;;;;2.43;2.00;;;2.30;99.90;;;;;;2035332;29;20478;-67
2023/12/27 04:00:55;;;;;;;3.90;2.00;;;2.40;99.90;;;;;;2035482;29;20236;-66
2023/12/27 04:01:56;;;;;;;3.67;1.93;;;2.40;99.90;;;;;;2035657;28;20237;-66
2023/12/27 04:02:56;;;;;;;3.07;1.73;;;2.20;99.90;;;;;;2036085;28;20246;-67
2023/12/27 04:03:57;;;;;;;4.03;1.93;;;2.20;99.90;;;;;;2035975;28;20240;-66
2023/12/27 04:04:58;;;;;;;5.17;2.30;;;2.10;99.90;;;;;;2035416;28;20724;-66
2023/12/27 04:05:58;;;;;;;3.00;1.80;;;2.10;99.90;;;;;;2034857;29;20266;-67
2023/12/27 04:06:59;;;;;;;2.40;1.83;;;2.20;99.90;;;;;;2034213;29;20325;-67
2023/12/27 04:08:00;;;;;;;4.43;2.08;;;2.10;99.90;;;;;;2033938;29;20433;-67
2023/12/27 04:09:01;;;;;;;1.70;1.50;;;2.10;99.90;;;;;;2034051;29;20910;-66
2023/12/27 04:10:03;;;;;;;6.47;1.80;;;2.10;99.90;;;;;;2034735;29;20193;-66
2023/12/27 04:11:03;;;;;;;3.10;1.92;;;2.10;99.90;;;;;;2034572;29;20199;-67
2023/12/27 04:12:04;;;;;;;2.60;1.70;;;2.20;99.90;;;;;;2035305;29;20570;-67
2023/12/27 04:13:05;;;;;;;1.92;1.55;;;2.20;99.90;;;;;;2035087;28;20203;-66
2023/12/27 04:14:06;;;;;;;2.17;1.70;;;2.20;99.90;;;;;;2026306;29;20196;-66
2023/12/27 04:15:07;;;;;;;2.60;1.70;;;2.10;99.90;;;;;;2026432;29;20192;-67
2023/12/27 04:16:07;;;;;;;2.90;1.80;;;2.10;99.90;;;;;;2035824;28;20226;-66
2023/12/27 04:17:08;;;;;;;5.30;1.60;;;2.00;99.90;;;;;;2035119;28;20200;-67
2023/12/27 04:18:11;;;;;;;4.03;1.70;;;2.00;99.90;;;;;;2035399;28;20668;-67
2023/12/27 04:19:12;;;;;;;2.58;1.70;;;1.90;99.90;;;;;;2035109;28;20598;-66
2023/12/27 04:20:13;;;;;;;6.07;2.00;;;2.00;99.90;;;;;;2035714;28;20191;-67
2023/12/27 04:21:13;;;;;;;5.83;1.83;;;2.00;99.90;;;;;;2035254;28;20203;-67
2023/12/27 04:22:14;;;;;;;2.57;1.60;;;2.00;99.90;;;;;;2035111;28;20230;-67
2023/12/27 04:23:14;;;;;;;2.00;1.63;;;2.00;99.90;;;;;;2037770;29;20220;-67
2023/12/27 04:24:15;;;;;;;1.93;1.60;;;2.00;99.90;;;;;;2034957;29;20219;-66
2023/12/27 04:25:16;;;;;;;5.20;1.63;;;1.90;99.90;;;;;;2034456;29;20272;-67
2023/12/27 04:26:17;;;;;;;3.33;1.40;;;2.00;99.90;;;;;;2030025;29;20197;-67
2023/12/27 04:27:17;;;;;;;3.97;1.50;;;2.00;99.90;;;;;;2038536;29;20556;-66
2023/12/27 04:28:18;;;;;;;3.17;1.70;;;2.00;99.90;;;;;;2033878;29;20324;-67
2023/12/27 04:29:18;;;;;;;2.70;1.30;;;2.00;99.90;;;;;;2026596;29;20223;-67
2023/12/27 04:30:19;;;;;;;3.83;1.80;;;2.00;99.90;;;;;;2026240;29;20211;-67
2023/12/27 04:31:20;;;;;;;1.93;1.43;;;2.00;99.90;;;;;;2033972;29;20208;-67
2023/12/27 04:32:20;;;;;;;2.17;1.47;;;2.00;99.90;;;;;;2030113;29;20303;-67
2023/12/27 04:33:21;;;;;;;3.47;1.70;;;2.00;99.90;;;;;;2030309;29;20235;-67
2023/12/27 04:34:22;;;;;;;3.57;1.57;;;2.00;99.90;;;;;;2034613;29;20235;-67
2023/12/27 04:35:22;;;;;;;3.23;1.23;;;2.00;99.90;;;;;;2034892;29;20476;-67
2023/12/27 04:36:23;;;;;;;1.30;1.20;;;2.00;99.90;;;;;;2034070;29;20757;-67
2023/12/27 04:37:24;;;;;;;2.50;1.60;;;2.00;99.90;;;;;;2034719;29;20238;-66
2023/12/27 04:38:25;;;;;;;1.50;1.20;;;2.00;99.90;;;;;;2033818;29;20765;-68
2023/12/27 04:39:26;;;;;;;2.33;1.20;;;2.00;99.90;;;;;;2026597;29;20232;-67
2023/12/27 04:40:27;;;;;;;1.65;1.38;;;2.10;99.90;;;;;;2030151;29;20292;-67
2023/12/27 04:41:27;;;;;;;3.10;1.40;;;2.10;99.90;;;;;;2038078;29;20307;-67
2023/12/27 04:42:28;;;;;;;3.97;1.40;;;2.10;99.90;;;;;;2034004;29;20224;-67
2023/12/27 04:43:29;;;;;;;1.40;1.30;;;2.10;99.90;;;;;;2034197;29;20592;-68
2023/12/27 04:44:29;;;;;;;2.37;1.30;;;2.10;99.90;;;;;;2035977;28;20227;-68
2023/12/27 04:45:30;;;;;;;1.63;1.33;;;2.20;99.90;;;;;;2038671;28;20230;-67
2023/12/27 04:46:30;;;;;;;1.80;1.10;;;2.30;99.90;;;;;;2038518;28;20229;-67
2023/12/27 04:47:31;;;;;;;3.70;1.60;;;2.40;99.90;;;;;;2038147;28;20303;-68
2023/12/27 04:48:32;;;;;;;1.57;1.20;;;2.40;99.90;;;;;;2037696;29;20743;-67
2023/12/27 04:49:33;;;;;;;1.30;1.10;;;2.30;99.90;;;;;;2037737;29;20235;-67
2023/12/27 04:50:34;;;;;;;3.03;1.60;;;2.30;99.90;;;;;;2038404;29;20247;-67
2023/12/27 04:51:35;;;;;;;2.37;1.60;;;2.30;99.90;;;;;;2038493;28;20236;-67
2023/12/27 04:52:35;;;;;;;3.03;1.37;;;2.30;99.90;;;;;;2037911;29;20235;-67
2023/12/27 04:53:36;;;;;;;3.83;1.30;;;2.30;99.90;;;;;;2029840;29;20470;-67
2023/12/27 04:54:36;;;;;;;1.97;1.33;;;2.30;99.90;;;;;;2029926;29;20720;-66
2023/12/27 04:55:37;;;;;;;2.47;1.60;;;2.30;99.90;;;;;;2038648;28;20240;-68
2023/12/27 04:56:38;;;;;;;2.83;1.50;;;2.20;99.90;;;;;;2038573;28;20290;-66
2023/12/27 04:57:38;;;;;;;1.90;1.50;;;2.20;99.90;;;;;;2038054;28;20242;-67
2023/12/27 04:58:39;;;;;;;3.23;1.67;;;2.20;99.90;;;;;;2038925;28;20235;-67
2023/12/27 04:59:40;;;;;;;1.83;1.37;;;2.20;99.90;;;;;;2038956;28;20287;-67
2023/12/27 05:00:40;;;;;;;3.13;1.97;;;2.20;99.90;;;;;;2038385;28;20664;-67
2023/12/27 05:01:41;;;;;;;1.80;1.40;;;2.20;99.90;;;;;;2038314;29;20280;-67
2023/12/27 05:02:42;;;;;;;2.00;1.60;;;2.30;99.90;;;;;;2030763;29;20242;-67
2023/12/27 05:03:44;;;;;;;2.27;1.57;;;2.30;99.90;;;;;;2037154;29;20302;-68
2023/12/27 05:04:45;;;;;;;2.25;1.30;;;2.30;99.90;;;;;;2038794;28;20235;-68
2023/12/27 05:05:46;;;;;;;2.28;1.48;;;2.20;99.90;;;;;;2038361;28;20260;-67
2023/12/27 05:06:47;;;;;;;5.67;1.67;;;2.20;99.90;;;;;;2038256;28;20242;-67
2023/12/27 05:07:47;;;;;;;3.30;1.40;;;2.10;99.90;;;;;;2036998;28;20289;-67
2023/12/27 05:08:48;;;;;;;1.80;1.40;;;2.10;99.90;;;;;;2037589;29;20346;-67
2023/12/27 05:09:49;;;;;;;2.27;1.70;;;2.20;99.90;;;;;;2037447;29;20714;-67
2023/12/27 05:10:49;;;;;;;1.80;1.30;;;2.10;99.90;;;;;;2038183;28;20267;-67
2023/12/27 05:11:50;;;;;;;3.07;1.50;;;2.20;99.90;;;;;;2038308;28;20240;-67
2023/12/27 05:12:53;;;;;;;4.70;1.90;;;2.20;99.90;;;;;;2038120;29;20255;-67
2023/12/27 05:13:53;;;;;;;2.53;1.52;;;2.20;99.90;;;;;;2029966;29;20244;-67
2023/12/27 05:14:54;;;;;;;2.33;1.40;;;2.20;99.90;;;;;;2034220;29;20231;-66
2023/12/27 05:15:55;;;;;;;4.50;1.30;;;2.20;99.90;;;;;;2038519;28;20228;-67
2023/12/27 05:16:56;;;;;;;2.58;1.30;;;2.20;99.90;;;;;;2038748;28;20239;-66
2023/12/27 05:17:57;;;;;;;1.67;1.20;;;2.20;99.90;;;;;;2037462;29;20349;-68
2023/12/27 05:18:57;;;;;;;3.70;1.43;;;2.20;99.90;;;;;;2038148;29;20263;-67
2023/12/27 05:19:58;;;;;;;1.87;1.47;;;2.20;99.90;;;;;;2037182;28;20669;-67
2023/12/27 05:21:01;;;;;;;2.97;1.33;;;2.20;99.90;;;;;;2035982;29;20319;-67